Time;durP1;ratioP1;P1;durP2;ratioP2;P2;SDS_P1;SDS_P2;PMS_P1;PMS_P2;Temp;Humidity;BMP_temperature;BMP_pressure;BME280_temperature;BME280_humidity;BME280_pressure;Samples;Min_cycle;Max_cycle;Signal;HPM_P1;HPM_P2
2022/12/28 04:02:07;;;;;;;1.35;1.10;;;13.20;52.40;;;;;;5117768;23;44972;-61
2022/12/28 04:04:32;;;;;;;1.20;0.85;;;13.20;52.40;;;;;;4898891;28;45295;-62
2022/12/28 04:06:58;;;;;;;1.20;1.00;;;13.20;52.30;;;;;;4896583;28;46454;-61
2022/12/28 04:09:23;;;;;;;1.38;0.98;;;13.10;52.30;;;;;;4892697;28;45289;-60
2022/12/28 04:11:49;;;;;;;2.13;1.13;;;13.20;52.30;;;;;;4896161;28;44792;-63
2022/12/28 04:14:15;;;;;;;1.08;0.90;;;13.20;52.40;;;;;;4895745;28;46000;-62
2022/12/28 04:16:40;;;;;;;1.35;0.90;;;13.20;52.30;;;;;;4896968;28;46318;-64
2022/12/28 04:19:06;;;;;;;1.70;1.10;;;13.20;52.30;;;;;;4900260;28;44935;-64
2022/12/28 04:21:31;;;;;;;1.00;0.90;;;13.20;52.30;;;;;;4892801;28;45338;-59
2022/12/28 04:23:57;;;;;;;1.48;1.10;;;13.20;52.30;;;;;;4889845;28;45565;-62
2022/12/28 04:26:22;;;;;;;1.55;0.88;;;13.20;52.40;;;;;;4898140;28;46099;-63
2022/12/28 04:28:48;;;;;;;1.00;0.90;;;13.20;52.30;;;;;;4898576;28;45363;-64
2022/12/28 04:31:13;;;;;;;1.02;0.90;;;13.20;52.40;;;;;;4891332;28;45483;-60
2022/12/28 04:33:39;;;;;;;1.02;0.80;;;13.20;52.40;;;;;;4899546;28;45312;-59
2022/12/28 04:36:11;;;;;;;1.40;1.20;;;13.20;52.40;;;;;;4883555;29;46114;-64
2022/12/28 04:38:36;;;;;;;1.52;0.90;;;13.10;52.40;;;;;;4864222;28;45096;-62
2022/12/28 04:41:02;;;;;;;1.17;0.90;;;13.20;52.40;;;;;;4898791;28;44755;-61
2022/12/28 04:43:29;;;;;;;1.70;1.13;;;13.20;52.40;;;;;;4899431;28;45559;-62
2022/12/28 04:46:10;;;;;;;1.63;1.13;;;13.10;52.30;;;;;;4897977;28;45950;-60
2022/12/28 04:48:36;;;;;;;1.10;0.80;;;13.10;52.40;;;;;;4900051;28;45220;-62
2022/12/28 04:51:13;;;;;;;1.63;0.80;;;13.20;52.30;;;;;;4897245;28;45397;-61
2022/12/28 04:53:39;;;;;;;1.17;0.90;;;13.10;52.30;;;;;;4887622;28;45247;-61
2022/12/28 04:56:05;;;;;;;1.30;0.95;;;13.10;52.30;;;;;;4899472;28;46967;-61
2022/12/28 04:58:31;;;;;;;1.65;1.08;;;13.10;52.30;;;;;;4896452;28;45350;-60
2022/12/28 05:01:16;;;;;;;0.95;0.90;;;13.10;52.30;;;;;;4894787;28;45658;-62
2022/12/28 05:03:43;;;;;;;1.60;1.30;;;13.10;52.40;;;;;;4889363;28;45209;-61
2022/12/28 05:06:13;;;;;;;0.65;0.65;;;13.10;52.40;;;;;;4893139;28;47008;-60
2022/12/28 05:08:38;;;;;;;1.50;1.08;;;13.10;52.40;;;;;;4897644;28;45209;-61
2022/12/28 05:11:10;;;;;;;1.63;1.25;;;13.10;52.30;;;;;;4891319;28;44919;-61
2022/12/28 05:13:36;;;;;;;0.98;0.90;;;13.10;52.40;;;;;;4894833;28;44747;-61
2022/12/28 05:16:10;;;;;;;1.05;0.95;;;13.10;52.40;;;;;;4893525;28;46103;-62
2022/12/28 05:18:35;;;;;;;1.00;0.90;;;13.10;52.40;;;;;;4878550;28;45127;-62
2022/12/28 05:21:05;;;;;;;2.20;1.00;;;13.10;52.40;;;;;;4899031;28;44771;-61
2022/12/28 05:23:31;;;;;;;1.55;1.20;;;13.10;52.40;;;;;;4901728;28;46063;-62
2022/12/28 05:25:57;;;;;;;1.13;0.80;;;13.10;52.40;;;;;;4899809;28;46136;-61
2022/12/28 05:28:23;;;;;;;1.38;0.93;;;13.10;52.40;;;;;;4895438;28;45543;-62
2022/12/28 05:30:48;;;;;;;1.23;1.00;;;13.10;52.40;;;;;;4896503;28;45648;-62
2022/12/28 05:33:14;;;;;;;2.13;1.00;;;13.10;52.40;;;;;;4898045;28;45227;-61
2022/12/28 05:35:39;;;;;;;1.02;0.93;;;13.10;52.30;;;;;;4894482;28;45923;-62
2022/12/28 05:38:05;;;;;;;1.15;1.00;;;13.10;52.30;;;;;;4889137;28;46046;-62
2022/12/28 05:40:30;;;;;;;1.30;0.95;;;13.10;52.40;;;;;;4896318;28;45014;-61
2022/12/28 05:42:56;;;;;;;0.95;0.93;;;13.10;52.40;;;;;;4895138;28;44899;-62
2022/12/28 05:45:21;;;;;;;1.60;1.17;;;13.10;52.40;;;;;;4900421;28;46090;-61
2022/12/28 05:47:47;;;;;;;1.65;1.23;;;13.10;52.40;;;;;;4891934;28;44710;-61
2022/12/28 05:50:12;;;;;;;1.15;1.00;;;13.10;52.40;;;;;;4900363;28;44926;-61
2022/12/28 05:52:38;;;;;;;1.50;1.05;;;13.00;52.30;;;;;;4884948;28;45772;-61
2022/12/28 05:55:03;;;;;;;1.60;1.02;;;13.00;52.30;;;;;;4893105;28;45944;-61
2022/12/28 05:57:29;;;;;;;1.92;1.25;;;13.10;52.40;;;;;;4889892;28;45164;-63
2022/12/28 05:59:54;;;;;;;1.10;0.80;;;13.10;52.30;;;;;;4892442;28;44748;-60
2022/12/28 06:02:24;;;;;;;1.25;1.08;;;13.10;52.40;;;;;;4888774;28;45317;-62
2022/12/28 06:04:49;;;;;;;0.85;0.70;;;13.00;52.30;;;;;;4890522;28;46758;-62
2022/12/28 06:07:15;;;;;;;1.38;1.10;;;13.10;52.40;;;;;;4893841;28;45208;-61
2022/12/28 06:09:40;;;;;;;1.52;1.10;;;13.00;52.60;;;;;;4893405;28;44679;-62
2022/12/28 06:12:06;;;;;;;1.20;1.00;;;13.00;52.30;;;;;;4891395;28;44738;-62
2022/12/28 06:14:32;;;;;;;1.58;1.10;;;13.00;52.30;;;;;;4893076;28;46663;-61
2022/12/28 06:16:57;;;;;;;1.38;0.90;;;13.00;52.30;;;;;;4894256;28;44674;-62
2022/12/28 06:19:23;;;;;;;1.20;1.10;;;13.00;52.30;;;;;;4898396;28;45645;-61
2022/12/28 06:21:48;;;;;;;1.30;0.90;;;13.00;52.30;;;;;;4898488;28;44890;-62
2022/12/28 06:24:14;;;;;;;1.35;1.08;;;13.00;52.30;;;;;;4893342;28;45352;-61
2022/12/28 06:26:39;;;;;;;1.50;1.02;;;13.00;52.30;;;;;;4896421;28;45285;-61
2022/12/28 06:29:05;;;;;;;1.90;1.10;;;13.00;52.30;;;;;;4894066;28;45344;-62
2022/12/28 06:31:32;;;;;;;1.30;1.10;;;13.00;52.20;;;;;;4889004;28;45947;-61
2022/12/28 06:33:59;;;;;;;1.20;0.80;;;13.00;52.30;;;;;;4895051;28;46828;-63
2022/12/28 06:36:27;;;;;;;1.63;1.00;;;13.00;52.30;;;;;;4895463;28;44683;-60
2022/12/28 06:38:53;;;;;;;1.08;0.88;;;13.00;52.30;;;;;;4891168;28;45493;-61
2022/12/28 06:41:19;;;;;;;1.58;1.17;;;13.00;52.20;;;;;;4891384;28;45412;-62
2022/12/28 06:43:45;;;;;;;1.67;1.27;;;13.00;52.20;;;;;;4888698;28;46178;-61
2022/12/28 06:46:11;;;;;;;2.38;1.33;;;13.00;52.30;;;;;;4879339;29;44736;-62
2022/12/28 06:48:36;;;;;;;1.35;1.00;;;13.00;52.30;;;;;;4898614;28;45233;-62
2022/12/28 06:51:10;;;;;;;1.02;0.90;;;13.00;52.30;;;;;;4894458;28;45525;-60
2022/12/28 06:53:36;;;;;;;1.55;1.08;;;13.00;52.30;;;;;;4892650;28;46152;-60
2022/12/28 06:56:04;;;;;;;1.35;1.00;;;13.00;52.30;;;;;;4890409;28;45219;-62
2022/12/28 06:58:29;;;;;;;1.40;1.10;;;13.00;52.30;;;;;;4889414;28;45211;-62
2022/12/28 07:00:55;;;;;;;2.05;1.30;;;13.00;52.30;;;;;;4891683;28;45476;-61
2022/12/28 07:03:21;;;;;;;1.35;1.00;;;13.00;52.30;;;;;;4886423;28;45305;-62
2022/12/28 07:05:47;;;;;;;1.75;1.15;;;13.00;52.30;;;;;;4890178;28;45491;-61
2022/12/28 07:08:12;;;;;;;1.85;1.10;;;13.00;52.30;;;;;;4893863;28;45613;-62
2022/12/28 07:10:38;;;;;;;1.52;1.20;;;13.00;52.30;;;;;;4893516;28;45688;-61
2022/12/28 07:13:04;;;;;;;1.25;1.00;;;13.00;52.30;;;;;;4893065;28;45224;-62
2022/12/28 07:15:29;;;;;;;1.52;1.05;;;13.00;52.30;;;;;;4891026;28;45353;-60
2022/12/28 07:17:55;;;;;;;1.42;1.20;;;13.00;52.30;;;;;;4877764;28;45246;-62
2022/12/28 07:20:20;;;;;;;1.23;1.00;;;13.00;52.30;;;;;;4896069;28;45016;-61
2022/12/28 07:22:46;;;;;;;1.58;0.88;;;13.00;52.30;;;;;;4897355;28;45809;-61
2022/12/28 07:25:11;;;;;;;1.17;0.95;;;13.00;52.30;;;;;;4887394;28;45044;-60
2022/12/28 07:27:37;;;;;;;1.20;1.10;;;13.00;52.30;;;;;;4881086;28;45716;-62
2022/12/28 07:30:03;;;;;;;1.65;1.05;;;13.00;52.30;;;;;;4893192;28;45683;-62
2022/12/28 07:32:28;;;;;;;0.93;0.80;;;13.00;52.30;;;;;;4896177;28;46221;-61
2022/12/28 07:34:54;;;;;;;1.38;1.00;;;13.00;52.30;;;;;;4887366;28;45365;-60
2022/12/28 07:37:19;;;;;;;1.30;1.13;;;13.00;52.30;;;;;;4870656;29;45876;-63
2022/12/28 07:39:45;;;;;;;1.13;0.82;;;13.00;52.30;;;;;;4885613;28;45334;-61
2022/12/28 07:42:11;;;;;;;1.08;1.00;;;12.90;52.30;;;;;;4883855;28;45559;-60
2022/12/28 07:44:37;;;;;;;1.45;1.02;;;12.90;52.30;;;;;;4879910;28;45887;-61
2022/12/28 07:47:02;;;;;;;1.17;1.00;;;12.90;52.30;;;;;;4885151;28;45723;-62
2022/12/28 07:49:28;;;;;;;1.92;1.10;;;12.90;52.30;;;;;;4889849;28;45380;-62
2022/12/28 07:51:54;;;;;;;1.63;1.08;;;13.00;52.30;;;;;;4886807;28;46146;-61
2022/12/28 07:54:19;;;;;;;1.77;1.20;;;12.90;52.30;;;;;;4889663;28;45339;-63
2022/12/28 07:56:45;;;;;;;1.58;0.98;;;12.90;52.20;;;;;;4888051;28;45268;-61
2022/12/28 07:59:13;;;;;;;1.65;1.13;;;12.90;52.30;;;;;;4896549;28;45016;-63
2022/12/28 08:01:39;;;;;;;1.98;1.10;;;12.90;52.30;;;;;;4884277;28;45209;-61
2022/12/28 08:04:07;;;;;;;1.08;0.88;;;12.90;52.30;;;;;;4883052;28;44988;-61
2022/12/28 08:06:35;;;;;;;1.13;0.88;;;13.00;52.30;;;;;;4891486;28;45226;-64
2022/12/28 08:09:00;;;;;;;1.20;1.00;;;12.90;52.30;;;;;;4889496;28;44719;-61
2022/12/28 08:11:28;;;;;;;2.97;1.20;;;12.90;52.30;;;;;;4886742;28;46408;-62
2022/12/28 08:13:54;;;;;;;1.08;0.98;;;12.90;52.30;;;;;;4890386;28;45317;-60
2022/12/28 08:16:20;;;;;;;1.27;1.02;;;12.90;52.30;;;;;;4901411;28;45469;-61
2022/12/28 08:18:46;;;;;;;1.23;0.90;;;12.90;52.30;;;;;;4885704;28;45561;-61
2022/12/28 08:21:17;;;;;;;1.58;0.98;;;12.90;52.30;;;;;;4892795;28;45335;-61
2022/12/28 08:23:42;;;;;;;1.10;0.95;;;12.90;52.20;;;;;;4874314;29;45279;-60
2022/12/28 08:26:08;;;;;;;2.03;0.90;;;12.90;52.30;;;;;;4846529;29;45800;-61
2022/12/28 08:28:34;;;;;;;1.10;0.90;;;12.90;52.30;;;;;;4883565;28;45040;-61
2022/12/28 08:31:10;;;;;;;1.73;1.00;;;12.90;52.30;;;;;;4893338;28;47074;-61
2022/12/28 08:33:36;;;;;;;1.88;1.08;;;12.90;52.30;;;;;;4895799;28;45237;-62
2022/12/28 08:36:02;;;;;;;1.00;0.90;;;12.90;52.30;;;;;;4891785;28;45622;-62
2022/12/28 08:38:28;;;;;;;1.60;1.10;;;12.90;52.30;;;;;;4893116;28;45400;-63
2022/12/28 08:40:55;;;;;;;0.70;0.70;;;12.90;52.30;;;;;;4894227;28;45459;-60
2022/12/28 08:43:20;;;;;;;1.17;0.95;;;12.90;52.30;;;;;;4893817;28;45215;-63
2022/12/28 08:45:58;;;;;;;1.70;1.17;;;12.90;52.30;;;;;;4895831;28;45091;-59
2022/12/28 08:48:24;;;;;;;0.77;0.77;;;12.90;52.40;;;;;;4889767;28;45242;-61
2022/12/28 08:50:50;;;;;;;1.20;1.00;;;12.90;52.40;;;;;;4889425;28;46133;-63
2022/12/28 08:53:16;;;;;;;1.10;0.90;;;12.90;52.40;;;;;;4881328;29;45635;-60
2022/12/28 08:55:41;;;;;;;1.30;1.13;;;12.90;52.30;;;;;;4896184;28;45378;-58
2022/12/28 08:58:07;;;;;;;1.27;0.90;;;12.90;52.30;;;;;;4871706;28;45601;-58
2022/12/28 09:00:32;;;;;;;1.52;1.08;;;12.90;52.30;;;;;;4895485;28;45847;-62
2022/12/28 09:02:58;;;;;;;1.35;1.10;;;12.90;52.30;;;;;;4895585;28;45513;-62
2022/12/28 09:05:24;;;;;;;1.13;0.93;;;12.90;52.30;;;;;;4893890;28;45281;-63
2022/12/28 09:07:50;;;;;;;0.77;0.77;;;12.90;52.40;;;;;;4893739;28;45549;-61
2022/12/28 09:10:16;;;;;;;1.48;1.13;;;12.90;52.30;;;;;;4891352;28;46048;-59
2022/12/28 09:12:41;;;;;;;1.08;0.98;;;12.90;52.30;;;;;;4898201;28;45301;-59
2022/12/28 09:15:08;;;;;;;1.83;0.98;;;12.90;52.30;;;;;;4894644;28;45187;-63
2022/12/28 09:17:33;;;;;;;1.20;0.82;;;12.90;52.30;;;;;;4896845;28;46240;-63
2022/12/28 09:19:59;;;;;;;1.20;0.90;;;12.90;52.20;;;;;;4900085;28;44946;-59
2022/12/28 09:22:24;;;;;;;1.52;1.10;;;12.90;52.20;;;;;;4883058;29;45199;-59
2022/12/28 09:24:50;;;;;;;0.95;0.80;;;12.90;52.20;;;;;;4898464;28;45434;-60
2022/12/28 09:27:15;;;;;;;1.08;0.98;;;12.90;52.30;;;;;;4872310;28;45502;-59
2022/12/28 09:29:41;;;;;;;0.82;0.73;;;12.90;52.30;;;;;;4896922;28;45616;-60
2022/12/28 09:32:07;;;;;;;1.60;0.93;;;12.90;52.30;;;;;;4898395;28;45605;-62
2022/12/28 09:34:34;;;;;;;1.65;1.00;;;12.90;52.40;;;;;;4901638;28;45393;-61
2022/12/28 09:37:00;;;;;;;1.13;1.00;;;12.90;52.30;;;;;;4893293;28;46668;-60
2022/12/28 09:39:25;;;;;;;0.95;0.80;;;12.90;52.30;;;;;;4911339;28;46118;-61
2022/12/28 09:42:27;;;;;;;1.10;0.88;;;12.90;52.30;;;;;;4896950;28;45493;-60
2022/12/28 09:44:56;;;;;;;1.70;1.13;;;12.90;52.30;;;;;;4876973;28;45327;-57
2022/12/28 09:47:43;;;;;;;1.77;1.10;;;12.90;52.30;;;;;;4899612;28;45285;-60
2022/12/28 09:50:15;;;;;;;0.93;0.80;;;12.90;52.30;;;;;;4896256;28;45276;-60
2022/12/28 09:53:05;;;;;;;1.65;1.00;;;12.90;52.20;;;;;;4895145;28;45498;-60
2022/12/28 09:55:36;;;;;;;0.73;0.73;;;12.90;52.20;;;;;;4895312;28;45225;-58
2022/12/28 09:58:03;;;;;;;1.23;0.93;;;12.90;52.20;;;;;;4877783;28;44778;-62
2022/12/28 10:00:38;;;;;;;1.30;0.80;;;12.90;52.30;;;;;;4903847;28;47225;-61
2022/12/28 10:03:32;;;;;;;1.30;0.93;;;12.90;52.20;;;;;;4898843;28;46722;-60
2022/12/28 10:05:57;;;;;;;;;;;12.90;52.30;;;;;;4895728;28;44885;-60
2022/12/28 10:08:23;;;;;;;1.30;0.90;;;12.90;52.30;;;;;;4896632;28;44678;-60
2022/12/28 10:10:49;;;;;;;1.63;0.80;;;12.90;52.30;;;;;;4896287;28;45528;-61
2022/12/28 10:13:20;;;;;;;1.08;0.90;;;12.90;52.30;;;;;;4898825;28;45366;-59
2022/12/28 10:15:45;;;;;;;1.00;0.88;;;12.90;52.30;;;;;;4892154;28;45464;-60
2022/12/28 10:18:12;;;;;;;1.13;1.02;;;12.90;52.20;;;;;;4897966;28;44759;-60
2022/12/28 10:20:38;;;;;;;1.27;0.90;;;12.90;52.20;;;;;;4891667;28;46841;-59
2022/12/28 10:23:03;;;;;;;1.10;0.70;;;12.80;52.20;;;;;;4895117;28;44878;-60
2022/12/28 10:25:29;;;;;;;1.25;1.10;;;12.80;52.20;;;;;;4879299;28;45417;-61
2022/12/28 10:27:55;;;;;;;0.93;0.77;;;12.90;52.30;;;;;;4900876;28;45492;-59
2022/12/28 10:30:25;;;;;;;1.20;0.88;;;12.80;52.20;;;;;;4877217;28;46319;-61
2022/12/28 10:32:53;;;;;;;1.45;0.98;;;12.90;52.30;;;;;;4894672;28;45614;-62
2022/12/28 10:35:26;;;;;;;1.40;1.00;;;12.90;52.30;;;;;;4894934;28;45629;-61
2022/12/28 10:38:02;;;;;;;1.38;0.70;;;12.90;52.30;;;;;;4894428;28;45535;-62
2022/12/28 10:40:29;;;;;;;1.33;0.88;;;12.80;52.20;;;;;;4873519;28;46011;-60
2022/12/28 10:42:55;;;;;;;1.02;0.90;;;12.80;52.20;;;;;;4891704;28;45288;-59
2022/12/28 10:45:34;;;;;;;1.42;1.00;;;12.80;52.30;;;;;;4894890;28;44834;-61
2022/12/28 10:47:59;;;;;;;1.05;0.90;;;12.80;52.20;;;;;;4896857;28;45244;-61
2022/12/28 10:50:54;;;;;;;1.42;0.98;;;12.80;52.20;;;;;;4897120;28;45336;-61
2022/12/28 10:53:23;;;;;;;1.15;0.82;;;12.90;52.20;;;;;;4887972;28;46168;-60
2022/12/28 10:55:51;;;;;;;1.00;0.63;;;12.90;52.20;;;;;;4893954;28;45367;-59
2022/12/28 10:58:20;;;;;;;1.67;0.98;;;12.90;52.10;;;;;;4881219;28;45106;-61
2022/12/28 11:00:58;;;;;;;1.65;1.08;;;12.90;52.10;;;;;;4889862;28;47088;-60
2022/12/28 11:03:34;;;;;;;1.60;0.82;;;12.90;52.00;;;;;;4896613;28;45188;-62
2022/12/28 11:06:19;;;;;;;1.92;1.00;;;12.90;52.00;;;;;;4889828;28;45454;-59
2022/12/28 11:08:58;;;;;;;0.80;0.80;;;12.90;52.00;;;;;;4875750;29;45189;-60
2022/12/28 11:11:24;;;;;;;1.35;0.80;;;12.90;52.00;;;;;;4893360;28;45633;-60
2022/12/28 11:13:59;;;;;;;0.75;0.70;;;12.90;52.10;;;;;;4897617;28;45196;-60
2022/12/28 11:16:24;;;;;;;1.38;1.00;;;12.90;52.00;;;;;;4879379;29;45244;-61
2022/12/28 11:18:50;;;;;;;0.93;0.70;;;12.90;52.00;;;;;;4889587;28;44811;-60
2022/12/28 11:21:18;;;;;;;0.75;0.70;;;12.90;52.00;;;;;;4898814;28;45424;-60
2022/12/28 11:23:44;;;;;;;0.60;0.60;;;12.90;52.10;;;;;;4890457;28;45557;-60
2022/12/28 11:26:11;;;;;;;1.67;1.20;;;12.90;52.00;;;;;;4872095;28;45238;-60
2022/12/28 11:28:38;;;;;;;0.90;0.77;;;12.90;52.10;;;;;;4888258;28;45595;-60
2022/12/28 11:31:04;;;;;;;0.80;0.80;;;12.90;52.10;;;;;;4894740;28;44985;-60
2022/12/28 11:33:39;;;;;;;1.00;0.77;;;12.80;52.10;;;;;;4895618;28;44940;-61
2022/12/28 11:36:05;;;;;;;0.90;0.73;;;12.80;52.10;;;;;;4893526;28;45211;-61
2022/12/28 11:38:38;;;;;;;1.20;0.90;;;12.80;52.10;;;;;;4880722;29;45501;-59
2022/12/28 11:41:04;;;;;;;1.27;0.90;;;12.80;52.10;;;;;;4887909;28;46352;-59
2022/12/28 11:43:30;;;;;;;1.25;0.88;;;12.80;52.10;;;;;;4895746;28;45451;-60
2022/12/28 11:46:07;;;;;;;1.02;0.75;;;12.80;52.10;;;;;;4893677;28;45785;-60
2022/12/28 11:48:41;;;;;;;1.27;0.90;;;12.80;52.20;;;;;;4895031;28;45380;-60
2022/12/28 11:51:35;;;;;;;0.95;0.68;;;12.80;52.10;;;;;;4886825;28;46182;-59
2022/12/28 11:54:20;;;;;;;0.75;0.75;;;12.80;52.10;;;;;;4892018;28;45247;-61
2022/12/28 11:56:46;;;;;;;1.48;1.10;;;12.80;52.20;;;;;;4895234;28;44787;-60
2022/12/28 11:59:22;;;;;;;1.15;0.90;;;12.80;52.10;;;;;;4894519;28;45414;-61
2022/12/28 12:01:49;;;;;;;0.85;0.80;;;12.80;52.10;;;;;;4894877;28;46114;-61
2022/12/28 12:04:38;;;;;;;2.00;1.00;;;12.90;52.10;;;;;;4890081;28;45035;-59
2022/12/28 12:07:04;;;;;;;0.95;0.82;;;12.90;52.10;;;;;;4891782;28;45323;-60
2022/12/28 12:09:31;;;;;;;0.90;0.82;;;12.80;52.10;;;;;;4902236;28;45278;-61
2022/12/28 12:11:57;;;;;;;1.02;0.75;;;12.90;52.20;;;;;;4897389;28;46214;-63
2022/12/28 12:14:31;;;;;;;1.88;0.90;;;12.90;52.10;;;;;;4895640;28;45118;-60
2022/12/28 12:17:01;;;;;;;0.85;0.63;;;12.90;52.10;;;;;;4889946;28;44957;-59
2022/12/28 12:19:37;;;;;;;1.33;0.93;;;12.90;52.10;;;;;;4901229;28;44831;-59
2022/12/28 12:22:22;;;;;;;1.10;0.90;;;12.90;52.10;;;;;;4872322;28;46901;-60
2022/12/28 12:24:56;;;;;;;1.15;0.90;;;12.90;52.10;;;;;;4891766;28;45610;-60
2022/12/28 12:27:35;;;;;;;0.80;0.60;;;12.90;52.20;;;;;;4880767;28;45421;-61
2022/12/28 12:30:14;;;;;;;0.88;0.80;;;12.90;52.00;;;;;;4899273;28;46060;-61
2022/12/28 12:32:43;;;;;;;1.10;0.77;;;12.90;52.00;;;;;;4895980;28;46083;-60
2022/12/28 12:35:13;;;;;;;1.33;0.82;;;12.90;52.00;;;;;;4912816;28;45459;-60
2022/12/28 12:37:55;;;;;;;1.20;0.82;;;12.90;52.00;;;;;;4881509;29;45539;-59
2022/12/28 12:40:46;;;;;;;1.05;0.80;;;12.90;52.00;;;;;;4896091;28;46001;-60
2022/12/28 12:43:32;;;;;;;1.25;1.00;;;12.90;51.90;;;;;;4890969;28;45176;-60
2022/12/28 12:46:32;;;;;;;1.45;1.02;;;12.90;51.90;;;;;;4898310;28;45517;-60
2022/12/28 12:49:35;;;;;;;1.10;0.82;;;12.90;52.00;;;;;;4883785;28;45351;-61
2022/12/28 12:52:06;;;;;;;0.50;0.47;;;12.90;52.00;;;;;;4908420;28;45194;-60
2022/12/28 12:54:38;;;;;;;0.95;0.80;;;12.90;52.00;;;;;;4892609;28;45542;-61
2022/12/28 12:57:24;;;;;;;1.33;0.93;;;12.90;52.00;;;;;;4891138;28;45362;-60
2022/12/28 12:59:59;;;;;;;1.02;0.90;;;12.90;52.00;;;;;;4896322;28;45260;-59
2022/12/28 13:02:44;;;;;;;0.95;0.75;;;12.90;51.90;;;;;;4879121;28;45026;-60
2022/12/28 13:05:15;;;;;;;0.85;0.60;;;12.90;51.90;;;;;;4897102;28;45223;-60
2022/12/28 13:07:40;;;;;;;1.08;0.82;;;12.90;51.90;;;;;;4892374;28;45296;-60
2022/12/28 13:10:06;;;;;;;0.80;0.80;;;12.90;51.90;;;;;;4891608;28;45225;-60
2022/12/28 13:12:32;;;;;;;1.25;0.98;;;12.90;52.00;;;;;;4892063;28;44691;-60
2022/12/28 13:15:01;;;;;;;0.75;0.73;;;12.90;51.90;;;;;;4895161;28;45402;-60
2022/12/28 13:17:27;;;;;;;0.75;0.70;;;12.90;51.90;;;;;;4876286;29;45275;-60
2022/12/28 13:20:19;;;;;;;0.95;0.85;;;12.90;51.90;;;;;;4890435;28;44795;-61
2022/12/28 13:22:45;;;;;;;0.88;0.80;;;12.90;51.90;;;;;;4891482;28;45535;-59
2022/12/28 13:25:33;;;;;;;0.75;0.70;;;12.90;51.90;;;;;;4893280;28;45292;-60
2022/12/28 13:27:59;;;;;;;0.77;0.75;;;12.90;52.50;;;;;;4893085;28;45489;-62
2022/12/28 13:30:25;;;;;;;0.60;0.60;;;12.90;51.90;;;;;;4886039;28;45000;-60
2022/12/28 13:32:55;;;;;;;0.93;0.82;;;12.90;51.90;;;;;;4880145;29;45726;-64
2022/12/28 13:35:26;;;;;;;1.10;1.00;;;12.90;52.00;;;;;;4892845;28;46178;-61
2022/12/28 13:38:01;;;;;;;1.00;0.90;;;12.90;51.90;;;;;;4892170;28;45584;-60
2022/12/28 13:40:28;;;;;;;0.98;0.88;;;12.90;51.90;;;;;;4891919;28;45304;-60
2022/12/28 13:43:14;;;;;;;0.80;0.77;;;12.90;51.90;;;;;;4879332;29;45230;-60
2022/12/28 13:45:39;;;;;;;0.77;0.70;;;12.90;51.90;;;;;;4873481;28;46908;-61
2022/12/28 13:48:07;;;;;;;1.40;1.10;;;12.90;51.90;;;;;;4890898;28;45550;-58
2022/12/28 13:50:32;;;;;;;0.85;0.70;;;12.90;51.90;;;;;;4893591;28;45269;-61
2022/12/28 13:53:10;;;;;;;0.85;0.73;;;12.90;51.90;;;;;;4893756;28;44950;-60
2022/12/28 13:55:41;;;;;;;0.90;0.70;;;12.90;51.80;;;;;;4893035;28;48170;-60
2022/12/28 13:58:12;;;;;;;0.70;0.70;;;12.90;51.90;;;;;;4895589;28;44904;-60
2022/12/28 14:00:38;;;;;;;0.85;0.68;;;12.90;51.90;;;;;;4910924;28;46014;-60
2022/12/28 14:03:06;;;;;;;0.88;0.80;;;12.90;51.90;;;;;;4885437;28;45483;-63
2022/12/28 14:05:32;;;;;;;0.85;0.70;;;13.00;51.90;;;;;;4891880;28;45344;-59
2022/12/28 14:07:57;;;;;;;0.50;0.50;;;12.90;51.90;;;;;;4893484;28;45133;-60
2022/12/28 14:10:23;;;;;;;0.85;0.75;;;12.90;51.90;;;;;;4878954;28;45246;-58
2022/12/28 14:12:48;;;;;;;0.90;0.70;;;12.90;52.00;;;;;;4895505;28;45784;-61
2022/12/28 14:15:14;;;;;;;0.60;0.60;;;12.90;51.90;;;;;;4895010;28;46800;-58
2022/12/28 14:17:40;;;;;;;1.13;0.77;;;12.90;51.90;;;;;;4893156;28;45864;-59
2022/12/28 14:20:06;;;;;;;0.90;0.70;;;12.90;51.90;;;;;;4862922;28;45663;-60
2022/12/28 14:22:34;;;;;;;1.25;0.90;;;12.90;51.90;;;;;;4861433;28;45363;-60
2022/12/28 14:25:13;;;;;;;1.10;0.88;;;12.90;51.90;;;;;;4897239;28;46020;-60
2022/12/28 14:27:43;;;;;;;0.73;0.73;;;12.90;51.90;;;;;;4888554;28;45361;-60
2022/12/28 14:30:29;;;;;;;0.98;0.75;;;12.90;51.80;;;;;;4898072;28;45306;-59
2022/12/28 14:32:55;;;;;;;0.68;0.68;;;13.00;51.90;;;;;;4899016;28;45317;-59
2022/12/28 14:35:23;;;;;;;1.00;0.77;;;12.90;51.90;;;;;;4880257;28;47056;-59
2022/12/28 14:37:53;;;;;;;1.88;1.02;;;12.90;51.90;;;;;;4882338;29;45278;-58
2022/12/28 14:40:27;;;;;;;0.90;0.70;;;12.90;51.90;;;;;;4890128;28;45209;-59
2022/12/28 14:42:53;;;;;;;1.25;0.60;;;12.90;51.90;;;;;;4881755;29;45143;-63
2022/12/28 14:45:35;;;;;;;0.70;0.55;;;12.90;51.90;;;;;;4891881;28;45162;-59
2022/12/28 14:48:01;;;;;;;1.30;0.82;;;12.90;51.90;;;;;;4895675;28;45215;-59
2022/12/28 14:50:28;;;;;;;1.10;1.00;;;12.90;51.90;;;;;;4891030;28;45561;-61
2022/12/28 14:53:20;;;;;;;1.40;0.80;;;12.90;51.90;;;;;;4901114;28;45445;-61
2022/12/28 14:55:51;;;;;;;0.82;0.80;;;12.90;51.90;;;;;;4892486;28;46001;-61
2022/12/28 14:58:20;;;;;;;1.10;0.98;;;12.90;51.90;;;;;;4898706;28;45292;-59
2022/12/28 15:00:54;;;;;;;1.13;0.90;;;12.90;51.90;;;;;;4895295;28;45469;-59
2022/12/28 15:03:20;;;;;;;1.23;0.90;;;12.90;51.90;;;;;;4893689;28;45289;-59
2022/12/28 15:05:49;;;;;;;1.05;0.70;;;12.90;51.90;;;;;;4873266;29;44882;-61
2022/12/28 15:08:16;;;;;;;0.82;0.70;;;12.90;51.90;;;;;;4893767;28;45280;-59
2022/12/28 15:10:47;;;;;;;0.98;0.68;;;12.90;51.90;;;;;;4893545;28;45166;-59
2022/12/28 15:13:13;;;;;;;0.60;0.60;;;12.90;51.90;;;;;;4892518;28;45033;-61
2022/12/28 15:15:38;;;;;;;0.73;0.68;;;12.90;51.80;;;;;;4888094;28;45955;-61
2022/12/28 15:18:04;;;;;;;0.60;0.60;;;12.90;51.80;;;;;;4895400;28;44559;-59
2022/12/28 15:20:29;;;;;;;0.73;0.70;;;12.90;51.90;;;;;;4896362;28;45305;-59
2022/12/28 15:22:55;;;;;;;0.65;0.65;;;12.90;51.90;;;;;;4896703;28;45280;-61
2022/12/28 15:25:20;;;;;;;0.60;0.60;;;12.90;51.90;;;;;;4893678;28;47099;-61
2022/12/28 15:27:50;;;;;;;0.73;0.70;;;12.90;51.90;;;;;;4891642;28;45066;-60
2022/12/28 15:30:16;;;;;;;0.88;0.70;;;12.90;51.90;;;;;;4893047;28;45329;-65
2022/12/28 15:32:41;;;;;;;0.70;0.60;;;12.90;52.00;;;;;;4910703;28;44984;-60
2022/12/28 15:35:07;;;;;;;1.10;0.60;;;12.90;51.90;;;;;;4878392;29;45268;-61
2022/12/28 15:37:33;;;;;;;1.33;0.82;;;12.90;51.90;;;;;;4898751;28;44964;-60
2022/12/28 15:39:58;;;;;;;0.77;0.77;;;12.90;51.90;;;;;;4897677;28;45121;-60
2022/12/28 15:42:24;;;;;;;1.40;0.90;;;12.90;51.90;;;;;;4877544;28;45220;-59
2022/12/28 15:44:51;;;;;;;0.85;0.80;;;12.90;52.00;;;;;;4889785;28;45896;-60
2022/12/28 15:47:17;;;;;;;0.85;0.70;;;12.90;51.90;;;;;;4888656;28;45341;-60
2022/12/28 15:49:43;;;;;;;1.42;0.60;;;12.90;51.90;;;;;;4895458;28;45310;-60
2022/12/28 15:52:08;;;;;;;0.90;0.70;;;12.90;52.00;;;;;;4898184;28;45471;-60
2022/12/28 15:54:34;;;;;;;1.17;0.80;;;12.90;52.00;;;;;;4892001;28;46460;-60
2022/12/28 15:56:59;;;;;;;1.40;0.90;;;12.90;52.00;;;;;;4895627;28;45392;-60
2022/12/28 15:59:25;;;;;;;0.57;0.57;;;12.90;51.90;;;;;;4891181;28;45598;-60
2022/12/28 16:01:51;;;;;;;0.82;0.70;;;12.90;51.90;;;;;;4887038;28;44642;-61
2022/12/28 16:04:16;;;;;;;0.98;0.70;;;12.90;52.00;;;;;;4895803;28;45164;-60
2022/12/28 16:06:42;;;;;;;0.85;0.70;;;12.90;51.90;;;;;;4893922;28;45359;-60
2022/12/28 16:09:08;;;;;;;0.85;0.75;;;12.90;51.90;;;;;;4893400;28;45463;-61
2022/12/28 16:11:34;;;;;;;1.58;0.90;;;12.90;51.90;;;;;;4890369;28;45654;-60
2022/12/28 16:14:01;;;;;;;0.98;0.70;;;12.90;51.90;;;;;;4893023;28;46683;-59
2022/12/28 16:16:29;;;;;;;0.70;0.70;;;12.90;51.90;;;;;;4888369;28;45369;-61
2022/12/28 16:18:56;;;;;;;0.98;0.80;;;12.90;52.00;;;;;;4893397;28;44767;-59
2022/12/28 16:21:22;;;;;;;0.52;0.52;;;12.90;52.00;;;;;;4895317;28;45486;-60
2022/12/28 16:23:47;;;;;;;1.17;0.70;;;12.90;52.00;;;;;;4891981;28;44881;-59
2022/12/28 16:26:13;;;;;;;0.60;0.60;;;12.80;51.90;;;;;;4896568;28;45352;-62
2022/12/28 16:28:39;;;;;;;0.70;0.70;;;12.90;51.90;;;;;;4890635;28;45716;-62
2022/12/28 16:31:05;;;;;;;1.10;0.70;;;12.90;51.90;;;;;;4891794;28;45930;-60
2022/12/28 16:33:30;;;;;;;0.80;0.70;;;12.90;52.00;;;;;;4896867;28;46103;-61
2022/12/28 16:35:56;;;;;;;0.68;0.68;;;12.90;52.00;;;;;;4893976;28;45393;-60
2022/12/28 16:38:23;;;;;;;1.23;0.60;;;12.80;51.90;;;;;;4888862;28;45027;-58
2022/12/28 16:40:48;;;;;;;0.85;0.80;;;12.90;52.00;;;;;;4895113;28;45222;-59
2022/12/28 16:43:14;;;;;;;0.55;0.50;;;12.90;52.00;;;;;;4896293;28;46942;-61
2022/12/28 16:45:41;;;;;;;0.95;0.70;;;12.90;52.00;;;;;;4896208;28;45414;-60
2022/12/28 16:48:08;;;;;;;0.73;0.70;;;12.90;52.00;;;;;;4894494;28;45379;-60
2022/12/28 16:50:34;;;;;;;0.60;0.60;;;12.80;51.90;;;;;;4895923;28;45758;-61
2022/12/28 16:53:00;;;;;;;0.85;0.70;;;12.80;51.90;;;;;;4877382;29;47050;-59
2022/12/28 16:55:39;;;;;;;0.73;0.70;;;12.90;52.00;;;;;;4896682;28;45271;-61
2022/12/28 16:58:05;;;;;;;0.90;0.70;;;12.90;52.00;;;;;;4879494;29;45203;-60